createdAt,value
2022-11-18T00:01:09.214Z,30.05
2022-11-18T00:03:36.919Z,28.40
2022-11-18T00:06:04.715Z,28.58
2022-11-18T00:08:32.245Z,27.73
2022-11-18T00:10:59.464Z,30.58
2022-11-18T00:13:45.276Z,28.73
2022-11-18T00:16:13.287Z,29.05
2022-11-18T00:18:40.489Z,30.48
2022-11-18T00:21:09.905Z,29.15
2022-11-18T00:26:12.249Z,26.85
2022-11-18T00:28:41.313Z,28.67
2022-11-18T00:31:10.747Z,29.67
2022-11-18T00:36:07.702Z,27.17
2022-11-18T00:41:02.614Z,27.55
2022-11-18T00:43:30.431Z,29.20
2022-11-18T00:45:58.113Z,29.90
2022-11-18T00:48:25.992Z,29.80
2022-11-18T00:50:55.145Z,30.20
2022-11-18T00:53:24.271Z,30.17
2022-11-18T00:55:52.191Z,32.13
2022-11-18T00:58:20.877Z,29.48
2022-11-18T01:00:52.041Z,30.08
2022-11-18T01:03:20.132Z,30.98
2022-11-18T01:05:47.757Z,30.00
2022-11-18T01:08:15.523Z,31.33
2022-11-18T01:10:42.971Z,29.98
2022-11-18T01:13:20.318Z,30.95
2022-11-18T01:15:52.974Z,30.60
2022-11-18T01:18:23.690Z,29.15
2022-11-18T01:20:51.032Z,32.38
2022-11-18T01:23:19.885Z,31.90
2022-11-18T01:25:48.787Z,31.63
2022-11-18T01:28:23.256Z,31.95
2022-11-18T01:30:51.178Z,31.83
2022-11-18T01:33:18.420Z,32.10
2022-11-18T01:35:45.636Z,33.45
2022-11-18T01:38:13.986Z,32.92
2022-11-18T01:40:41.778Z,31.95
2022-11-18T01:43:20.789Z,30.77
2022-11-18T01:45:51.958Z,31.17
2022-11-18T01:48:21.249Z,33.35
2022-11-18T01:51:01.087Z,32.08
2022-11-18T01:53:32.723Z,33.67
2022-11-18T01:56:04.366Z,33.22
2022-11-18T01:58:42.132Z,32.65
2022-11-18T02:01:09.640Z,32.45
2022-11-18T02:03:37.772Z,34.72
2022-11-18T02:06:05.778Z,33.65
2022-11-18T02:08:37.459Z,33.47
2022-11-18T02:11:32.387Z,33.50
2022-11-18T02:14:01.177Z,31.35
2022-11-18T02:16:50.963Z,34.03
2022-11-18T02:19:41.822Z,31.45
2022-11-18T02:22:45.903Z,32.63
2022-11-18T02:25:34.087Z,32.08
2022-11-18T02:28:29.779Z,32.75
2022-11-18T02:31:21.049Z,31.40
2022-11-18T02:33:52.806Z,32.20
2022-11-18T02:36:28.459Z,32.13
2022-11-18T02:39:05.509Z,32.45
2022-11-18T02:41:35.346Z,32.00
2022-11-18T02:44:16.967Z,31.55
2022-11-18T02:46:47.632Z,29.65
2022-11-18T02:49:22.383Z,30.10
2022-11-18T02:51:51.170Z,30.05
2022-11-18T02:54:20.039Z,30.15
2022-11-18T02:56:47.643Z,29.48
2022-11-18T02:59:19.596Z,28.90
2022-11-18T03:01:47.244Z,29.58
2022-11-18T03:04:15.282Z,29.10
2022-11-18T03:07:19.123Z,28.88
2022-11-18T03:09:49.383Z,29.50
2022-11-18T03:12:54.211Z,30.35
2022-11-18T03:15:39.279Z,27.80
2022-11-18T03:18:16.790Z,29.73
2022-11-18T03:20:58.826Z,31.05
2022-11-18T03:23:42.476Z,31.33
2022-11-18T03:26:18.037Z,30.75
2022-11-18T03:28:54.027Z,30.60
2022-11-18T03:31:30.114Z,32.45
2022-11-18T03:34:04.194Z,32.30
2022-11-18T03:36:36.000Z,33.42
2022-11-18T03:39:03.866Z,31.85
2022-11-18T03:41:33.017Z,34.40
2022-11-18T03:44:07.928Z,33.55
2022-11-18T03:46:55.346Z,33.33
2022-11-18T03:49:32.019Z,33.33
2022-11-18T03:52:06.739Z,32.13
2022-11-18T03:54:36.125Z,33.28
2022-11-18T03:59:41.350Z,30.75
2022-11-18T04:02:23.947Z,31.95
2022-11-18T04:04:54.331Z,31.02
2022-11-18T04:07:34.924Z,31.02
2022-11-18T04:10:19.229Z,30.98
2022-11-18T04:13:11.931Z,31.42
2022-11-18T04:15:41.062Z,29.98
2022-11-18T04:18:08.740Z,30.83
2022-11-18T04:20:37.423Z,28.90
2022-11-18T04:23:05.701Z,30.60
2022-11-18T04:25:33.016Z,30.13
2022-11-18T04:28:00.302Z,30.80
2022-11-18T04:30:27.907Z,28.92
2022-11-18T04:32:55.101Z,28.92
2022-11-18T04:35:22.310Z,29.45
2022-11-18T04:37:49.491Z,29.00
2022-11-18T04:40:16.934Z,29.98
2022-11-18T04:42:44.168Z,29.67
2022-11-18T04:45:11.598Z,29.77
2022-11-18T04:47:39.051Z,28.33
2022-11-18T04:50:06.898Z,29.42
2022-11-18T04:52:34.090Z,31.45
2022-11-18T04:55:01.254Z,31.30
2022-11-18T04:57:28.435Z,31.75
2022-11-18T04:59:55.608Z,30.70
2022-11-18T05:02:22.767Z,30.17
2022-11-18T05:04:50.121Z,31.17
2022-11-18T05:07:20.463Z,31.05
2022-11-18T05:09:47.684Z,29.88
2022-11-18T05:12:33.874Z,30.23
2022-11-18T05:15:01.429Z,29.63
2022-11-18T05:17:28.727Z,30.27
2022-11-18T05:19:56.016Z,31.10
2022-11-18T05:22:23.256Z,31.30
2022-11-18T05:24:50.451Z,31.58
2022-11-18T05:27:18.007Z,33.88
2022-11-18T05:29:45.285Z,31.77
2022-11-18T05:32:12.503Z,35.97
2022-11-18T05:34:40.953Z,33.97
2022-11-18T05:37:08.189Z,35.07
2022-11-18T05:39:35.384Z,33.67
2022-11-18T05:42:21.576Z,33.58
2022-11-18T05:44:56.158Z,33.20
2022-11-18T05:47:25.185Z,33.65
2022-11-18T05:49:52.363Z,33.70
2022-11-18T05:52:19.606Z,33.22
2022-11-18T05:54:50.036Z,33.70
2022-11-18T05:57:17.355Z,35.38
2022-11-18T05:59:44.824Z,33.30
2022-11-18T06:02:16.803Z,35.22
2022-11-18T06:04:54.761Z,35.05
2022-11-18T06:07:35.832Z,36.53
2022-11-18T06:10:06.015Z,38.03
2022-11-18T06:12:37.897Z,36.13
2022-11-18T06:15:19.089Z,36.92
2022-11-18T06:18:09.024Z,36.95
2022-11-18T06:20:38.063Z,37.00
2022-11-18T06:23:05.407Z,37.10
2022-11-18T06:25:33.746Z,35.85
2022-11-18T06:28:02.308Z,37.13
2022-11-18T06:30:29.617Z,36.45
2022-11-18T06:32:56.908Z,37.38
2022-11-18T06:35:24.306Z,38.97
2022-11-18T06:37:51.700Z,35.70
2022-11-18T06:40:19.013Z,37.47
2022-11-18T06:43:05.046Z,35.85
2022-11-18T06:45:32.281Z,33.55
2022-11-18T06:48:04.170Z,34.75
2022-11-18T06:50:31.516Z,35.72
2022-11-18T06:53:01.402Z,36.72
2022-11-18T06:55:28.609Z,34.80
2022-11-18T06:57:57.148Z,34.03
2022-11-18T07:00:24.363Z,35.57
2022-11-18T07:02:51.594Z,35.92
2022-11-18T07:05:21.636Z,34.42
2022-11-18T07:07:48.944Z,32.60
2022-11-18T07:10:16.441Z,32.13
2022-11-18T07:12:43.647Z,31.15
2022-11-18T07:15:11.172Z,31.75
2022-11-18T07:17:38.405Z,31.30
2022-11-18T07:20:06.000Z,30.13
2022-11-18T07:22:33.156Z,29.70
2022-11-18T07:25:00.574Z,29.48
2022-11-18T07:27:27.806Z,28.75
2022-11-18T07:29:54.989Z,27.70
2022-11-18T07:32:22.270Z,27.77
2022-11-18T07:34:49.488Z,28.08
2022-11-18T07:37:16.718Z,28.25
2022-11-18T07:39:43.896Z,26.92
2022-11-18T07:42:11.117Z,27.95
2022-11-18T07:44:38.359Z,27.20
2022-11-18T07:47:05.559Z,25.45
2022-11-18T07:49:32.782Z,26.10
2022-11-18T07:52:00.010Z,27.10
2022-11-18T07:54:27.183Z,28.33
2022-11-18T07:56:54.415Z,27.23
2022-11-18T07:59:21.763Z,30.10
2022-11-18T08:01:49.094Z,30.27
2022-11-18T08:04:17.945Z,32.22
2022-11-18T08:06:45.602Z,29.25
2022-11-18T08:09:12.928Z,30.88
2022-11-18T08:11:40.940Z,31.40
2022-11-18T08:14:08.252Z,32.15
2022-11-18T08:16:35.519Z,31.50
2022-11-18T08:19:02.685Z,31.00
2022-11-18T08:21:29.889Z,30.45
2022-11-18T08:23:58.034Z,30.48
2022-11-18T08:26:26.291Z,29.55
2022-11-18T08:28:54.146Z,29.75
2022-11-18T08:31:30.893Z,28.23
2022-11-18T08:34:06.613Z,27.80
2022-11-18T08:36:36.016Z,25.88
2022-11-18T08:41:40.633Z,24.42
2022-11-18T08:44:08.643Z,25.52
2022-11-18T08:46:35.864Z,23.90
2022-11-18T08:49:03.083Z,25.50
2022-11-18T08:51:30.678Z,23.38
2022-11-18T08:53:58.197Z,24.20
2022-11-18T08:56:25.911Z,23.30
2022-11-18T08:58:54.338Z,24.23
2022-11-18T09:01:21.695Z,23.65
2022-11-18T09:03:49.751Z,25.45
2022-11-18T09:06:17.976Z,23.25
2022-11-18T09:08:45.605Z,24.45
2022-11-18T09:11:15.289Z,24.77
2022-11-18T09:14:20.482Z,23.55
2022-11-18T09:16:31.616Z,23.50
2022-11-18T09:19:08.535Z,24.08
2022-11-18T09:21:45.631Z,22.88
2022-11-18T09:24:13.274Z,24.60
2022-11-18T09:26:41.344Z,24.77
2022-11-18T09:29:09.020Z,23.88
2022-11-18T09:31:36.217Z,22.30
2022-11-18T09:34:03.414Z,22.70
2022-11-18T09:36:30.785Z,22.35
2022-11-18T09:39:00.363Z,21.88
2022-11-18T09:41:47.767Z,23.35
2022-11-18T09:44:33.934Z,24.20
2022-11-18T09:47:28.069Z,22.13
2022-11-18T09:49:57.182Z,22.90
2022-11-18T09:52:40.428Z,21.33
2022-11-18T09:55:15.893Z,22.65
2022-11-18T09:57:51.125Z,21.52
2022-11-18T10:00:23.995Z,20.67
2022-11-18T10:02:57.333Z,19.92
2022-11-18T10:05:34.109Z,20.10
2022-11-18T10:08:22.758Z,20.52
2022-11-18T10:11:04.908Z,21.38
2022-11-18T10:13:47.375Z,20.75
2022-11-18T10:16:39.597Z,20.63
2022-11-18T10:19:32.194Z,19.38
2022-11-18T10:22:24.005Z,20.13
2022-11-18T10:24:53.893Z,19.55
2022-11-18T10:29:53.223Z,19.67
2022-11-18T10:32:20.979Z,18.23
2022-11-18T10:34:52.452Z,18.08
2022-11-18T10:37:34.694Z,17.45
2022-11-18T10:40:25.500Z,17.00
2022-11-18T10:42:52.791Z,16.20
2022-11-18T10:45:27.424Z,16.20
2022-11-18T10:48:28.516Z,15.25
2022-11-18T10:50:56.235Z,15.07
2022-11-18T10:53:34.064Z,14.05
2022-11-18T10:56:09.109Z,13.13
2022-11-18T10:58:40.886Z,13.25
2022-11-18T11:01:24.991Z,13.38
2022-11-18T11:04:14.038Z,13.48
2022-11-18T11:06:41.262Z,13.00
2022-11-18T11:09:28.689Z,12.95
2022-11-18T11:12:01.418Z,12.35
2022-11-18T11:14:32.881Z,12.65
2022-11-18T11:17:16.211Z,13.48
2022-11-18T11:19:51.445Z,15.30
2022-11-18T11:22:18.990Z,14.15
2022-11-18T11:24:46.585Z,13.00
2022-11-18T11:30:24.455Z,13.50
2022-11-18T11:33:20.764Z,12.10
2022-11-18T11:35:52.172Z,11.95
2022-11-18T11:38:41.403Z,11.73
2022-11-18T11:44:07.511Z,11.80
2022-11-18T11:47:19.517Z,12.60
2022-11-18T11:50:03.821Z,12.05
2022-11-18T11:52:35.556Z,11.68
2022-11-18T11:55:16.910Z,13.05
2022-11-18T11:57:52.523Z,12.02
2022-11-18T12:00:20.745Z,12.60
2022-11-18T12:02:57.906Z,12.73
2022-11-18T12:05:35.876Z,13.48
2022-11-18T12:08:06.463Z,11.80
2022-11-18T12:11:03.931Z,13.07
2022-11-18T12:13:41.923Z,12.43
2022-11-18T12:16:24.511Z,12.00
2022-11-18T12:19:07.148Z,11.77
2022-11-18T12:21:46.151Z,12.68
2022-11-18T12:24:33.318Z,13.80
2022-11-18T12:27:05.675Z,12.77
2022-11-18T12:29:55.656Z,12.82
2022-11-18T12:32:42.820Z,13.45
2022-11-18T12:35:13.067Z,11.90
2022-11-18T12:37:52.674Z,13.65
2022-11-18T12:40:40.388Z,14.05
2022-11-18T12:43:48.970Z,11.27
2022-11-18T12:46:34.248Z,12.98
2022-11-18T12:49:23.379Z,13.00
2022-11-18T12:52:04.183Z,12.10
2022-11-18T12:54:46.565Z,13.23
2022-11-18T12:57:19.380Z,13.10
2022-11-18T12:59:46.764Z,12.15
2022-11-18T13:02:19.216Z,11.23
2022-11-18T13:04:53.100Z,11.90
2022-11-18T13:07:43.476Z,12.27
2022-11-18T13:10:32.088Z,14.80
2022-11-18T13:12:59.866Z,14.52
2022-11-18T13:15:46.359Z,12.32
2022-11-18T13:18:17.635Z,10.63
2022-11-18T13:20:56.439Z,12.10
2022-11-18T13:23:48.977Z,12.00
2022-11-18T13:26:30.386Z,11.80
2022-11-18T13:29:13.578Z,14.25
2022-11-18T13:32:04.998Z,11.52
2022-11-18T13:34:33.117Z,12.80
2022-11-18T13:37:01.300Z,11.60
2022-11-18T13:39:31.953Z,11.80
2022-11-18T13:42:03.706Z,10.75
2022-11-18T13:44:33.415Z,12.23
2022-11-18T13:47:20.827Z,12.68
2022-11-18T13:50:14.023Z,11.52
2022-11-18T13:52:45.204Z,13.95
2022-11-18T13:55:34.358Z,10.15
2022-11-18T13:58:08.971Z,22.25
2022-11-18T14:00:36.693Z,10.50
2022-11-18T14:03:13.647Z,14.00
2022-11-18T14:05:41.301Z,16.90
2022-11-18T14:08:28.304Z,14.50
2022-11-18T14:10:55.719Z,14.20
2022-11-18T14:13:49.457Z,10.43
2022-11-18T14:16:24.047Z,9.52
2022-11-18T14:18:52.300Z,10.77
2022-11-18T14:21:31.540Z,9.98
2022-11-18T14:24:03.286Z,9.65
2022-11-18T14:26:38.551Z,8.82
2022-11-18T14:29:21.334Z,9.32
2022-11-18T14:32:26.881Z,8.07
2022-11-18T14:35:00.842Z,8.85
2022-11-18T14:37:28.501Z,8.77
2022-11-18T14:39:58.867Z,8.32
2022-11-18T14:42:26.067Z,9.38
2022-11-18T14:44:53.274Z,10.02
2022-11-18T14:47:30.479Z,9.32
2022-11-18T14:50:00.526Z,9.95
2022-11-18T14:52:27.714Z,20.35
2022-11-18T14:54:54.871Z,14.18
2022-11-18T14:57:22.060Z,17.08
2022-11-18T14:59:49.241Z,35.63
2022-11-18T15:02:17.936Z,14.77
2022-11-18T15:04:45.363Z,13.52
2022-11-18T15:07:18.532Z,15.43
2022-11-18T15:09:48.942Z,19.20
2022-11-18T15:12:16.169Z,15.98
2022-11-18T15:14:43.413Z,22.40
2022-11-18T15:17:13.193Z,12.30
2022-11-18T15:19:43.254Z,11.73
2022-11-18T15:22:10.427Z,12.18
2022-11-18T15:24:38.472Z,14.93
2022-11-18T15:27:05.661Z,15.05
2022-11-18T15:29:33.842Z,14.95
2022-11-18T15:32:01.029Z,27.17
2022-11-18T15:34:28.232Z,16.17
2022-11-18T15:36:55.423Z,20.25
2022-11-18T15:39:22.849Z,15.88
2022-11-18T15:41:50.163Z,12.07
2022-11-18T15:44:17.694Z,13.60
2022-11-18T15:46:47.857Z,12.30
2022-11-18T15:49:17.463Z,11.25
2022-11-18T15:51:44.785Z,12.15
2022-11-18T15:54:12.009Z,13.98
2022-11-18T15:56:39.907Z,12.13
2022-11-18T15:59:11.919Z,11.57
2022-11-18T16:01:41.064Z,12.80
2022-11-18T16:04:10.434Z,12.35
2022-11-18T16:09:05.942Z,12.93
2022-11-18T16:11:51.649Z,13.80
2022-11-18T16:14:20.256Z,17.02
2022-11-18T16:16:49.305Z,19.38
2022-11-18T16:19:18.721Z,15.27
2022-11-18T16:21:48.394Z,16.98
2022-11-18T16:24:18.982Z,20.40
2022-11-18T16:26:46.397Z,21.98
2022-11-18T16:29:17.202Z,14.23
2022-11-18T16:31:50.616Z,17.88
2022-11-18T16:34:19.126Z,23.08
2022-11-18T16:36:48.583Z,34.58
2022-11-18T16:39:23.445Z,20.30
2022-11-18T16:41:54.573Z,17.20
2022-11-18T16:44:21.792Z,20.25
2022-11-18T16:46:50.801Z,26.27
2022-11-18T16:49:20.825Z,29.65
2022-11-18T16:51:49.930Z,24.10
2022-11-18T16:54:23.177Z,26.63
2022-11-18T16:56:51.871Z,21.10
2022-11-18T16:59:23.922Z,17.15
2022-11-18T17:01:55.326Z,16.67
2022-11-18T17:04:24.498Z,13.32
2022-11-18T17:06:52.109Z,13.05
2022-11-18T17:09:22.269Z,13.23
2022-11-18T17:11:50.753Z,18.33
2022-11-18T17:14:19.493Z,15.20
2022-11-18T17:16:46.996Z,15.45
2022-11-18T17:19:16.215Z,13.93
2022-11-18T17:21:43.972Z,15.27
2022-11-18T17:24:16.724Z,13.57
2022-11-18T17:26:44.240Z,10.73
2022-11-18T17:29:12.268Z,10.90
2022-11-18T17:31:40.133Z,13.50
2022-11-18T17:34:09.541Z,13.23
2022-11-18T17:36:36.791Z,11.50
2022-11-18T17:39:04.546Z,10.73
2022-11-18T17:41:50.262Z,11.07
2022-11-18T17:44:18.363Z,10.75
2022-11-18T17:46:47.258Z,9.80
2022-11-18T17:49:17.948Z,11.93
2022-11-18T17:51:48.227Z,10.90
2022-11-18T17:54:16.144Z,12.15
2022-11-18T17:56:43.727Z,12.27
2022-11-18T17:59:14.464Z,12.90
2022-11-18T18:01:41.783Z,14.23
2022-11-18T18:04:09.001Z,14.88
2022-11-18T18:06:36.230Z,17.38
2022-11-18T18:09:03.813Z,16.38
2022-11-18T18:11:31.041Z,16.70
2022-11-18T18:14:13.669Z,15.80
2022-11-18T18:16:46.544Z,21.00
2022-11-18T18:19:19.526Z,17.33
2022-11-18T18:21:47.412Z,17.55
2022-11-18T18:24:17.231Z,22.20
2022-11-18T18:26:47.227Z,19.75
2022-11-18T18:29:14.742Z,16.67
2022-11-18T18:31:42.285Z,17.95
2022-11-18T18:34:09.503Z,16.05
2022-11-18T18:36:36.917Z,16.55
2022-11-18T18:39:04.619Z,17.15
2022-11-18T18:41:32.563Z,16.42
2022-11-18T18:44:00.578Z,19.13
2022-11-18T18:46:34.274Z,18.13
2022-11-18T18:49:20.504Z,18.88
2022-11-18T18:51:49.429Z,19.02
2022-11-18T18:54:18.437Z,19.02
2022-11-18T18:56:46.145Z,20.17
2022-11-18T18:59:13.378Z,18.88
2022-11-18T19:01:41.148Z,19.85
2022-11-18T19:04:11.214Z,23.00
2022-11-18T19:09:27.132Z,22.65
2022-11-18T19:12:13.150Z,22.08
2022-11-18T19:14:40.511Z,23.00
2022-11-18T19:17:12.723Z,24.42
2022-11-18T19:20:00.350Z,24.75
2022-11-18T19:22:30.487Z,24.55
2022-11-18T19:24:58.271Z,23.05
2022-11-18T19:27:26.185Z,23.15
2022-11-18T19:29:53.618Z,24.10
2022-11-18T19:32:21.137Z,22.85
2022-11-18T19:34:48.348Z,23.33
2022-11-18T19:37:15.670Z,25.00
2022-11-18T19:39:42.838Z,28.08
2022-11-18T19:42:10.988Z,30.45
2022-11-18T19:44:39.039Z,29.87
2022-11-18T19:47:06.454Z,31.67
2022-11-18T19:49:33.632Z,30.23
2022-11-18T19:52:00.937Z,30.40
2022-11-18T19:54:28.344Z,28.77
2022-11-18T19:56:55.560Z,28.73
2022-11-18T19:59:22.779Z,27.70
2022-11-18T20:01:50.062Z,27.20
2022-11-18T20:04:17.456Z,26.00
2022-11-18T20:06:45.603Z,25.65
2022-11-18T20:09:13.373Z,26.45
2022-11-18T20:11:40.718Z,26.70
2022-11-18T20:14:09.002Z,26.05
2022-11-18T20:16:37.153Z,30.20
2022-11-18T20:19:10.681Z,28.35
2022-11-18T20:21:39.219Z,27.55
2022-11-18T20:24:07.848Z,26.77
2022-11-18T20:26:38.092Z,29.37
2022-11-18T20:29:06.265Z,29.33
2022-11-18T20:31:34.123Z,28.98
2022-11-18T20:34:01.632Z,26.67
2022-11-18T20:36:31.311Z,25.38
2022-11-18T20:39:01.506Z,25.17
2022-11-18T20:41:32.039Z,26.50
2022-11-18T20:44:00.104Z,26.75
2022-11-18T20:46:27.789Z,28.70
2022-11-18T20:48:55.510Z,28.02
2022-11-18T20:51:24.829Z,25.65
2022-11-18T20:56:21.628Z,20.70
2022-11-18T21:01:21.791Z,22.48
2022-11-18T21:03:53.598Z,21.83
2022-11-18T21:06:22.292Z,25.35
2022-11-18T21:08:54.079Z,24.77
2022-11-18T21:11:21.388Z,27.83
2022-11-18T21:14:07.303Z,24.10
2022-11-18T21:16:34.827Z,23.42
2022-11-18T21:19:02.040Z,20.80
2022-11-18T21:21:44.566Z,20.67
2022-11-18T21:24:13.873Z,19.77
2022-11-18T21:29:10.750Z,18.50
2022-11-18T21:31:38.443Z,19.38
2022-11-18T21:34:06.441Z,20.75
2022-11-18T21:36:34.160Z,20.50
2022-11-18T21:39:01.974Z,19.27
2022-11-18T21:41:30.007Z,18.27
2022-11-18T21:44:05.485Z,18.60
2022-11-18T21:46:38.129Z,21.23
2022-11-18T21:49:06.067Z,23.27
2022-11-18T21:51:34.162Z,20.60
2022-11-18T21:54:02.057Z,19.30
2022-11-18T21:56:31.311Z,18.10
2022-11-18T21:59:00.160Z,20.33
2022-11-18T22:01:29.681Z,20.90
2022-11-18T22:03:58.958Z,19.67
2022-11-18T22:08:53.905Z,16.55
2022-11-18T22:11:22.496Z,17.15
2022-11-18T22:13:51.854Z,17.98
2022-11-18T22:18:53.090Z,16.77
2022-11-18T22:21:23.582Z,17.02
2022-11-18T22:23:50.718Z,17.30
2022-11-18T22:26:19.887Z,18.48
2022-11-18T22:28:47.951Z,19.02
2022-11-18T22:31:20.199Z,19.55
2022-11-18T22:33:47.915Z,18.50
2022-11-18T22:36:16.307Z,18.55
2022-11-18T22:38:44.218Z,19.20
2022-11-18T22:41:37.573Z,17.63
2022-11-18T22:44:07.892Z,22.50
2022-11-18T22:46:39.896Z,18.95
2022-11-18T22:49:07.802Z,18.48
2022-11-18T22:51:36.175Z,20.13
2022-11-18T22:54:36.347Z,18.47
2022-11-18T22:56:50.896Z,17.75
2022-11-18T22:59:18.437Z,16.40
2022-11-18T23:01:45.948Z,17.30
2022-11-18T23:04:13.105Z,18.77
2022-11-18T23:06:40.279Z,18.08
2022-11-18T23:09:07.471Z,18.20
2022-11-18T23:11:53.012Z,18.05
2022-11-18T23:14:20.183Z,18.48
2022-11-18T23:16:47.341Z,18.27
2022-11-18T23:19:17.119Z,18.10
2022-11-18T23:21:44.980Z,19.92
2022-11-18T23:24:13.253Z,17.70
2022-11-18T23:26:41.186Z,18.30
2022-11-18T23:29:09.406Z,17.83
2022-11-18T23:31:36.680Z,17.73
2022-11-18T23:34:03.860Z,17.25
2022-11-18T23:36:31.225Z,18.48
2022-11-18T23:38:58.755Z,17.50
2022-11-18T23:41:25.935Z,18.15
2022-11-18T23:43:54.160Z,17.13
2022-11-18T23:46:21.458Z,17.80
2022-11-18T23:48:48.745Z,17.48
2022-11-18T23:51:22.966Z,17.67
2022-11-18T23:53:54.129Z,18.00
2022-11-18T23:56:23.283Z,16.73
2022-11-18T23:58:51.780Z,16.90
